sensor_id;sensor_type;location;lat;lon;timestamp;P1;durP1;ratioP1;P2;durP2;ratioP2
63008;SDS011;49099;28.428;-16.488;2022-11-18T00:01:05;15.07;;;3.30;;
63008;SDS011;49099;28.428;-16.488;2022-11-18T00:03:37;12.90;;;2.80;;
63008;SDS011;49099;28.428;-16.488;2022-11-18T00:06:05;14.02;;;2.38;;
63008;SDS011;49099;28.428;-16.488;2022-11-18T00:08:33;11.60;;;2.55;;
63008;SDS011;49099;28.428;-16.488;2022-11-18T00:11:04;15.05;;;2.90;;
63008;SDS011;49099;28.428;-16.488;2022-11-18T00:13:39;15.60;;;3.00;;
63008;SDS011;49099;28.428;-16.488;2022-11-18T00:16:25;12.32;;;2.65;;
63008;SDS011;49099;28.428;-16.488;2022-11-18T00:18:58;13.27;;;2.97;;
63008;SDS011;49099;28.428;-16.488;2022-11-18T00:21:25;19.20;;;2.70;;
63008;SDS011;49099;28.428;-16.488;2022-11-18T00:23:52;12.00;;;2.58;;
63008;SDS011;49099;28.428;-16.488;2022-11-18T00:26:19;15.90;;;2.35;;
63008;SDS011;49099;28.428;-16.488;2022-11-18T00:28:46;8.73;;;2.35;;
63008;SDS011;49099;28.428;-16.488;2022-11-18T00:31:13;10.27;;;2.60;;
63008;SDS011;49099;28.428;-16.488;2022-11-18T00:33:40;13.77;;;2.42;;
63008;SDS011;49099;28.428;-16.488;2022-11-18T00:36:09;7.30;;;2.00;;
63008;SDS011;49099;28.428;-16.488;2022-11-18T00:38:37;8.98;;;2.60;;
63008;SDS011;49099;28.428;-16.488;2022-11-18T00:41:09;7.70;;;2.47;;
63008;SDS011;49099;28.428;-16.488;2022-11-18T00:43:37;10.10;;;2.67;;
63008;SDS011;49099;28.428;-16.488;2022-11-18T00:46:05;13.20;;;2.22;;
63008;SDS011;49099;28.428;-16.488;2022-11-18T00:48:34;8.23;;;2.00;;
63008;SDS011;49099;28.428;-16.488;2022-11-18T00:51:06;10.07;;;2.08;;
63008;SDS011;49099;28.428;-16.488;2022-11-18T00:53:34;8.15;;;2.03;;
63008;SDS011;49099;28.428;-16.488;2022-11-18T00:56:01;9.88;;;2.58;;
63008;SDS011;49099;28.428;-16.488;2022-11-18T00:58:28;13.45;;;2.33;;
63008;SDS011;49099;28.428;-16.488;2022-11-18T01:00:55;8.50;;;2.20;;
63008;SDS011;49099;28.428;-16.488;2022-11-18T01:03:23;9.05;;;2.20;;
63008;SDS011;49099;28.428;-16.488;2022-11-18T01:05:51;8.85;;;2.20;;
63008;SDS011;49099;28.428;-16.488;2022-11-18T01:08:18;7.68;;;2.10;;
63008;SDS011;49099;28.428;-16.488;2022-11-18T01:10:46;11.80;;;2.25;;
63008;SDS011;49099;28.428;-16.488;2022-11-18T01:13:15;11.63;;;2.30;;
63008;SDS011;49099;28.428;-16.488;2022-11-18T01:15:50;7.82;;;2.08;;
63008;SDS011;49099;28.428;-16.488;2022-11-18T01:18:23;10.77;;;1.90;;
63008;SDS011;49099;28.428;-16.488;2022-11-18T01:20:52;11.13;;;2.37;;
63008;SDS011;49099;28.428;-16.488;2022-11-18T01:23:20;9.27;;;2.05;;
63008;SDS011;49099;28.428;-16.488;2022-11-18T01:25:48;5.25;;;1.75;;
63008;SDS011;49099;28.428;-16.488;2022-11-18T01:28:16;10.38;;;1.80;;
63008;SDS011;49099;28.428;-16.488;2022-11-18T01:30:49;7.45;;;1.92;;
63008;SDS011;49099;28.428;-16.488;2022-11-18T01:33:17;7.80;;;1.98;;
63008;SDS011;49099;28.428;-16.488;2022-11-18T01:35:44;6.65;;;1.80;;
63008;SDS011;49099;28.428;-16.488;2022-11-18T01:38:12;6.95;;;1.83;;
63008;SDS011;49099;28.428;-16.488;2022-11-18T01:40:40;10.20;;;1.92;;
63008;SDS011;49099;28.428;-16.488;2022-11-18T01:43:14;9.73;;;1.92;;
63008;SDS011;49099;28.428;-16.488;2022-11-18T01:45:44;9.57;;;2.00;;
63008;SDS011;49099;28.428;-16.488;2022-11-18T01:50:56;6.30;;;1.73;;
63008;SDS011;49099;28.428;-16.488;2022-11-18T01:53:31;8.23;;;1.55;;
63008;SDS011;49099;28.428;-16.488;2022-11-18T02:01:02;8.57;;;1.77;;
63008;SDS011;49099;28.428;-16.488;2022-11-18T02:03:31;7.43;;;1.80;;
63008;SDS011;49099;28.428;-16.488;2022-11-18T02:05:59;6.85;;;1.90;;
63008;SDS011;49099;28.428;-16.488;2022-11-18T02:08:29;6.35;;;1.70;;
63008;SDS011;49099;28.428;-16.488;2022-11-18T02:10:57;9.13;;;2.17;;
63008;SDS011;49099;28.428;-16.488;2022-11-18T02:13:24;5.40;;;1.65;;
63008;SDS011;49099;28.428;-16.488;2022-11-18T02:24:11;6.45;;;1.50;;
63008;SDS011;49099;28.428;-16.488;2022-11-18T02:27:23;6.68;;;1.45;;
63008;SDS011;49099;28.428;-16.488;2022-11-18T02:32:33;8.23;;;1.83;;
63008;SDS011;49099;28.428;-16.488;2022-11-18T02:38:00;7.55;;;1.60;;
63008;SDS011;49099;28.428;-16.488;2022-11-18T02:40:29;6.95;;;1.63;;
63008;SDS011;49099;28.428;-16.488;2022-11-18T02:43:03;7.40;;;1.83;;
63008;SDS011;49099;28.428;-16.488;2022-11-18T02:45:34;5.50;;;1.35;;
63008;SDS011;49099;28.428;-16.488;2022-11-18T02:48:05;8.30;;;1.95;;
63008;SDS011;49099;28.428;-16.488;2022-11-18T02:50:34;6.28;;;1.40;;
63008;SDS011;49099;28.428;-16.488;2022-11-18T02:53:04;6.20;;;1.35;;
63008;SDS011;49099;28.428;-16.488;2022-11-18T02:55:33;5.50;;;1.50;;
63008;SDS011;49099;28.428;-16.488;2022-11-18T02:58:02;4.88;;;1.42;;
63008;SDS011;49099;28.428;-16.488;2022-11-18T03:00:31;6.22;;;1.40;;
63008;SDS011;49099;28.428;-16.488;2022-11-18T03:02:59;4.88;;;1.30;;
63008;SDS011;49099;28.428;-16.488;2022-11-18T03:05:35;4.90;;;1.45;;
63008;SDS011;49099;28.428;-16.488;2022-11-18T03:08:10;6.53;;;1.50;;
63008;SDS011;49099;28.428;-16.488;2022-11-18T03:11:02;5.00;;;1.40;;
63008;SDS011;49099;28.428;-16.488;2022-11-18T03:13:45;3.80;;;1.10;;
63008;SDS011;49099;28.428;-16.488;2022-11-18T03:16:24;4.47;;;1.17;;
63008;SDS011;49099;28.428;-16.488;2022-11-18T03:19:02;11.97;;;1.80;;
63008;SDS011;49099;28.428;-16.488;2022-11-18T03:21:36;7.65;;;1.35;;
63008;SDS011;49099;28.428;-16.488;2022-11-18T03:24:11;5.38;;;1.50;;
63008;SDS011;49099;28.428;-16.488;2022-11-18T03:26:47;7.22;;;1.60;;
63008;SDS011;49099;28.428;-16.488;2022-11-18T03:29:23;8.63;;;1.70;;
63008;SDS011;49099;28.428;-16.488;2022-11-18T03:31:59;7.10;;;1.40;;
63008;SDS011;49099;28.428;-16.488;2022-11-18T03:34:44;5.28;;;1.23;;
63008;SDS011;49099;28.428;-16.488;2022-11-18T03:37:15;7.05;;;1.55;;
63008;SDS011;49099;28.428;-16.488;2022-11-18T03:39:45;5.15;;;1.52;;
63008;SDS011;49099;28.428;-16.488;2022-11-18T03:42:22;6.53;;;1.30;;
63008;SDS011;49099;28.428;-16.488;2022-11-18T03:44:54;5.68;;;1.60;;
63008;SDS011;49099;28.428;-16.488;2022-11-18T03:47:30;8.07;;;1.55;;
63008;SDS011;49099;28.428;-16.488;2022-11-18T03:50:05;7.63;;;1.50;;
63008;SDS011;49099;28.428;-16.488;2022-11-18T03:52:38;6.25;;;1.30;;
63008;SDS011;49099;28.428;-16.488;2022-11-18T03:55:11;6.15;;;1.45;;
63008;SDS011;49099;28.428;-16.488;2022-11-18T04:00:16;3.35;;;1.17;;
63008;SDS011;49099;28.428;-16.488;2022-11-18T04:02:45;6.35;;;1.45;;
63008;SDS011;49099;28.428;-16.488;2022-11-18T04:05:15;8.63;;;1.65;;
63008;SDS011;49099;28.428;-16.488;2022-11-18T04:07:54;6.32;;;1.48;;
63008;SDS011;49099;28.428;-16.488;2022-11-18T04:10:36;8.43;;;1.67;;
63008;SDS011;49099;28.428;-16.488;2022-11-18T04:13:14;6.57;;;1.58;;
63008;SDS011;49099;28.428;-16.488;2022-11-18T04:15:47;7.38;;;1.60;;
63008;SDS011;49099;28.428;-16.488;2022-11-18T04:18:14;10.30;;;1.60;;
63008;SDS011;49099;28.428;-16.488;2022-11-18T04:20:41;7.05;;;1.60;;
63008;SDS011;49099;28.428;-16.488;2022-11-18T04:23:08;11.50;;;1.88;;
63008;SDS011;49099;28.428;-16.488;2022-11-18T04:25:35;6.13;;;1.30;;
63008;SDS011;49099;28.428;-16.488;2022-11-18T04:28:03;11.10;;;1.83;;
63008;SDS011;49099;28.428;-16.488;2022-11-18T04:30:31;6.40;;;1.70;;
63008;SDS011;49099;28.428;-16.488;2022-11-18T04:32:58;6.65;;;1.52;;
63008;SDS011;49099;28.428;-16.488;2022-11-18T04:35:25;5.82;;;1.55;;
63008;SDS011;49099;28.428;-16.488;2022-11-18T04:37:53;7.60;;;1.67;;
63008;SDS011;49099;28.428;-16.488;2022-11-18T04:40:20;6.75;;;1.73;;
63008;SDS011;49099;28.428;-16.488;2022-11-18T04:42:47;5.68;;;1.40;;
63008;SDS011;49099;28.428;-16.488;2022-11-18T04:45:14;5.72;;;1.40;;
63008;SDS011;49099;28.428;-16.488;2022-11-18T04:47:41;7.03;;;1.60;;
63008;SDS011;49099;28.428;-16.488;2022-11-18T04:50:08;5.45;;;1.50;;
63008;SDS011;49099;28.428;-16.488;2022-11-18T04:52:35;8.10;;;1.75;;
63008;SDS011;49099;28.428;-16.488;2022-11-18T04:55:03;8.50;;;1.40;;
63008;SDS011;49099;28.428;-16.488;2022-11-18T04:57:30;4.47;;;1.30;;
63008;SDS011;49099;28.428;-16.488;2022-11-18T04:59:57;5.15;;;1.40;;
63008;SDS011;49099;28.428;-16.488;2022-11-18T05:02:24;7.63;;;1.40;;
63008;SDS011;49099;28.428;-16.488;2022-11-18T05:04:51;4.00;;;1.27;;
63008;SDS011;49099;28.428;-16.488;2022-11-18T05:07:18;6.18;;;1.50;;
63008;SDS011;49099;28.428;-16.488;2022-11-18T05:09:46;4.72;;;1.30;;
63008;SDS011;49099;28.428;-16.488;2022-11-18T05:12:13;8.15;;;1.33;;
63008;SDS011;49099;28.428;-16.488;2022-11-18T05:14:59;8.27;;;1.38;;
63008;SDS011;49099;28.428;-16.488;2022-11-18T05:17:26;8.80;;;1.60;;
63008;SDS011;49099;28.428;-16.488;2022-11-18T05:19:53;6.65;;;1.40;;
63008;SDS011;49099;28.428;-16.488;2022-11-18T05:22:21;5.47;;;1.45;;
63008;SDS011;49099;28.428;-16.488;2022-11-18T05:24:48;3.95;;;1.15;;
63008;SDS011;49099;28.428;-16.488;2022-11-18T05:27:15;4.13;;;1.40;;
63008;SDS011;49099;28.428;-16.488;2022-11-18T05:29:42;5.65;;;1.20;;
63008;SDS011;49099;28.428;-16.488;2022-11-18T05:32:09;3.47;;;1.02;;
63008;SDS011;49099;28.428;-16.488;2022-11-18T05:34:40;4.72;;;1.10;;
63008;SDS011;49099;28.428;-16.488;2022-11-18T05:37:08;4.47;;;1.00;;
63008;SDS011;49099;28.428;-16.488;2022-11-18T05:39:35;5.97;;;1.48;;
63008;SDS011;49099;28.428;-16.488;2022-11-18T05:42:02;2.78;;;1.10;;
63008;SDS011;49099;28.428;-16.488;2022-11-18T05:44:48;3.03;;;1.00;;
63008;SDS011;49099;28.428;-16.488;2022-11-18T05:47:23;3.35;;;1.05;;
63008;SDS011;49099;28.428;-16.488;2022-11-18T05:49:51;5.10;;;1.00;;
63008;SDS011;49099;28.428;-16.488;2022-11-18T05:52:18;2.20;;;0.82;;
63008;SDS011;49099;28.428;-16.488;2022-11-18T05:54:46;1.40;;;0.65;;
63008;SDS011;49099;28.428;-16.488;2022-11-18T05:57:16;3.40;;;0.90;;
63008;SDS011;49099;28.428;-16.488;2022-11-18T05:59:43;2.90;;;0.90;;
63008;SDS011;49099;28.428;-16.488;2022-11-18T06:02:14;3.42;;;0.90;;
63008;SDS011;49099;28.428;-16.488;2022-11-18T06:04:48;5.32;;;1.00;;
63008;SDS011;49099;28.428;-16.488;2022-11-18T06:07:36;3.78;;;0.80;;
63008;SDS011;49099;28.428;-16.488;2022-11-18T06:10:12;2.92;;;0.88;;
63008;SDS011;49099;28.428;-16.488;2022-11-18T06:12:48;1.50;;;0.80;;
63008;SDS011;49099;28.428;-16.488;2022-11-18T06:15:19;3.47;;;1.00;;
63008;SDS011;49099;28.428;-16.488;2022-11-18T06:17:51;1.50;;;0.90;;
63008;SDS011;49099;28.428;-16.488;2022-11-18T06:20:25;3.75;;;0.90;;
63008;SDS011;49099;28.428;-16.488;2022-11-18T06:22:53;2.65;;;0.73;;
63008;SDS011;49099;28.428;-16.488;2022-11-18T06:25:23;2.00;;;0.77;;
63008;SDS011;49099;28.428;-16.488;2022-11-18T06:27:50;1.88;;;0.70;;
63008;SDS011;49099;28.428;-16.488;2022-11-18T06:30:19;1.25;;;0.60;;
63008;SDS011;49099;28.428;-16.488;2022-11-18T06:32:46;2.83;;;0.70;;
63008;SDS011;49099;28.428;-16.488;2022-11-18T06:35:13;2.53;;;0.93;;
63008;SDS011;49099;28.428;-16.488;2022-11-18T06:37:41;2.00;;;0.70;;
63008;SDS011;49099;28.428;-16.488;2022-11-18T06:40:08;2.28;;;0.80;;
63008;SDS011;49099;28.428;-16.488;2022-11-18T06:42:36;1.95;;;0.60;;
63008;SDS011;49099;28.428;-16.488;2022-11-18T06:45:21;5.93;;;1.05;;
63008;SDS011;49099;28.428;-16.488;2022-11-18T06:47:48;4.45;;;1.15;;
63008;SDS011;49099;28.428;-16.488;2022-11-18T06:50:15;4.22;;;0.90;;
63008;SDS011;49099;28.428;-16.488;2022-11-18T06:52:43;1.67;;;0.70;;
63008;SDS011;49099;28.428;-16.488;2022-11-18T06:55:10;2.55;;;0.90;;
63008;SDS011;49099;28.428;-16.488;2022-11-18T06:57:37;2.03;;;0.80;;
63008;SDS011;49099;28.428;-16.488;2022-11-18T07:00:04;3.28;;;1.00;;
63008;SDS011;49099;28.428;-16.488;2022-11-18T07:02:34;6.93;;;0.90;;
63008;SDS011;49099;28.428;-16.488;2022-11-18T07:05:02;1.23;;;0.65;;
63008;SDS011;49099;28.428;-16.488;2022-11-18T07:07:30;1.80;;;0.70;;
63008;SDS011;49099;28.428;-16.488;2022-11-18T07:10:07;0.75;;;0.60;;
63008;SDS011;49099;28.428;-16.488;2022-11-18T07:12:34;6.43;;;1.20;;
63008;SDS011;49099;28.428;-16.488;2022-11-18T07:15:01;1.95;;;0.70;;
63008;SDS011;49099;28.428;-16.488;2022-11-18T07:17:29;2.22;;;0.82;;
63008;SDS011;49099;28.428;-16.488;2022-11-18T07:19:57;3.15;;;0.75;;
63008;SDS011;49099;28.428;-16.488;2022-11-18T07:22:24;4.30;;;0.93;;
63008;SDS011;49099;28.428;-16.488;2022-11-18T07:24:51;3.53;;;0.77;;
63008;SDS011;49099;28.428;-16.488;2022-11-18T07:27:18;2.25;;;0.60;;
63008;SDS011;49099;28.428;-16.488;2022-11-18T07:29:45;3.15;;;0.60;;
63008;SDS011;49099;28.428;-16.488;2022-11-18T07:32:12;2.13;;;0.70;;
63008;SDS011;49099;28.428;-16.488;2022-11-18T07:34:39;2.50;;;0.90;;
63008;SDS011;49099;28.428;-16.488;2022-11-18T07:37:07;1.58;;;0.60;;
63008;SDS011;49099;28.428;-16.488;2022-11-18T07:39:34;3.15;;;0.60;;
63008;SDS011;49099;28.428;-16.488;2022-11-18T07:42:01;0.63;;;0.60;;
63008;SDS011;49099;28.428;-16.488;2022-11-18T07:44:28;1.95;;;0.73;;
63008;SDS011;49099;28.428;-16.488;2022-11-18T07:46:55;4.40;;;0.70;;
63008;SDS011;49099;28.428;-16.488;2022-11-18T07:49:22;4.57;;;0.60;;
63008;SDS011;49099;28.428;-16.488;2022-11-18T07:51:49;1.38;;;0.70;;
63008;SDS011;49099;28.428;-16.488;2022-11-18T07:54:16;1.38;;;0.60;;
63008;SDS011;49099;28.428;-16.488;2022-11-18T07:56:43;1.98;;;0.60;;
63008;SDS011;49099;28.428;-16.488;2022-11-18T07:59:10;3.92;;;0.68;;
63008;SDS011;49099;28.428;-16.488;2022-11-18T08:01:37;1.75;;;0.70;;
63008;SDS011;49099;28.428;-16.488;2022-11-18T08:04:09;1.20;;;0.70;;
63008;SDS011;49099;28.428;-16.488;2022-11-18T08:06:38;0.98;;;0.55;;
63008;SDS011;49099;28.428;-16.488;2022-11-18T08:09:06;2.55;;;0.60;;
63008;SDS011;49099;28.428;-16.488;2022-11-18T08:11:34;1.50;;;0.50;;
63008;SDS011;49099;28.428;-16.488;2022-11-18T08:14:01;0.35;;;0.35;;
63008;SDS011;49099;28.428;-16.488;2022-11-18T08:16:28;1.65;;;0.43;;
63008;SDS011;49099;28.428;-16.488;2022-11-18T08:18:56;1.33;;;0.60;;
63008;SDS011;49099;28.428;-16.488;2022-11-18T08:21:25;5.25;;;0.50;;
63008;SDS011;49099;28.428;-16.488;2022-11-18T08:23:53;2.38;;;0.65;;
63008;SDS011;49099;28.428;-16.488;2022-11-18T08:26:23;1.25;;;0.50;;
63008;SDS011;49099;28.428;-16.488;2022-11-18T08:28:51;1.75;;;0.60;;
63008;SDS011;49099;28.428;-16.488;2022-11-18T08:31:20;2.35;;;0.60;;
63008;SDS011;49099;28.428;-16.488;2022-11-18T08:33:59;2.40;;;0.63;;
63008;SDS011;49099;28.428;-16.488;2022-11-18T08:36:29;1.33;;;0.57;;
63008;SDS011;49099;28.428;-16.488;2022-11-18T08:38:59;1.05;;;0.50;;
63008;SDS011;49099;28.428;-16.488;2022-11-18T08:43:59;0.30;;;0.30;;
63008;SDS011;49099;28.428;-16.488;2022-11-18T08:46:27;1.63;;;0.50;;
63008;SDS011;49099;28.428;-16.488;2022-11-18T08:48:55;1.40;;;0.40;;
63008;SDS011;49099;28.428;-16.488;2022-11-18T08:51:22;0.50;;;0.40;;
63008;SDS011;49099;28.428;-16.488;2022-11-18T08:53:50;0.75;;;0.40;;
63008;SDS011;49099;28.428;-16.488;2022-11-18T08:56:18;0.85;;;0.50;;
63008;SDS011;49099;28.428;-16.488;2022-11-18T08:58:47;0.65;;;0.50;;
63008;SDS011;49099;28.428;-16.488;2022-11-18T09:01:14;2.83;;;0.90;;
63008;SDS011;49099;28.428;-16.488;2022-11-18T09:03:42;2.15;;;0.50;;
63008;SDS011;49099;28.428;-16.488;2022-11-18T09:06:10;0.40;;;0.40;;
63008;SDS011;49099;28.428;-16.488;2022-11-18T09:08:42;1.75;;;0.57;;
63008;SDS011;49099;28.428;-16.488;2022-11-18T09:11:20;0.57;;;0.47;;
63008;SDS011;49099;28.428;-16.488;2022-11-18T09:13:52;0.82;;;0.47;;
63008;SDS011;49099;28.428;-16.488;2022-11-18T09:16:41;1.85;;;0.50;;
63008;SDS011;49099;28.428;-16.488;2022-11-18T09:19:09;1.80;;;0.57;;
63008;SDS011;49099;28.428;-16.488;2022-11-18T09:21:56;0.95;;;0.55;;
63008;SDS011;49099;28.428;-16.488;2022-11-18T09:24:23;0.88;;;0.50;;
63008;SDS011;49099;28.428;-16.488;2022-11-18T09:26:50;1.30;;;0.52;;
63008;SDS011;49099;28.428;-16.488;2022-11-18T09:29:19;0.50;;;0.40;;
63008;SDS011;49099;28.428;-16.488;2022-11-18T09:31:51;0.73;;;0.38;;
63008;SDS011;49099;28.428;-16.488;2022-11-18T09:34:19;0.30;;;0.30;;
63008;SDS011;49099;28.428;-16.488;2022-11-18T09:36:46;0.68;;;0.45;;
63008;SDS011;49099;28.428;-16.488;2022-11-18T09:39:13;1.63;;;0.50;;
63008;SDS011;49099;28.428;-16.488;2022-11-18T09:41:47;1.55;;;0.60;;
63008;SDS011;49099;28.428;-16.488;2022-11-18T09:49:45;21.45;;;4.78;;
63008;SDS011;49099;28.428;-16.488;2022-11-18T09:54:47;16.58;;;4.38;;
63008;SDS011;49099;28.428;-16.488;2022-11-18T09:57:15;24.17;;;4.30;;
63008;SDS011;49099;28.428;-16.488;2022-11-18T09:59:45;14.55;;;3.53;;
63008;SDS011;49099;28.428;-16.488;2022-11-18T10:04:39;17.55;;;3.22;;
63008;SDS011;49099;28.428;-16.488;2022-11-18T10:07:12;14.10;;;2.90;;
63008;SDS011;49099;28.428;-16.488;2022-11-18T10:09:47;20.27;;;4.00;;
63008;SDS011;49099;28.428;-16.488;2022-11-18T10:12:22;15.85;;;4.13;;
63008;SDS011;49099;28.428;-16.488;2022-11-18T10:17:55;7.75;;;2.08;;
63008;SDS011;49099;28.428;-16.488;2022-11-18T10:23:17;5.93;;;1.60;;
63008;SDS011;49099;28.428;-16.488;2022-11-18T10:25:51;4.90;;;1.52;;
63008;SDS011;49099;28.428;-16.488;2022-11-18T10:28:23;7.22;;;1.60;;
63008;SDS011;49099;28.428;-16.488;2022-11-18T10:30:51;8.73;;;1.52;;
63008;SDS011;49099;28.428;-16.488;2022-11-18T10:35:48;6.53;;;1.42;;
63008;SDS011;49099;28.428;-16.488;2022-11-18T10:38:18;7.22;;;1.88;;
63008;SDS011;49099;28.428;-16.488;2022-11-18T10:40:56;5.85;;;1.50;;
63008;SDS011;49099;28.428;-16.488;2022-11-18T10:43:43;3.33;;;1.20;;
63008;SDS011;49099;28.428;-16.488;2022-11-18T10:46:18;6.95;;;1.42;;
63008;SDS011;49099;28.428;-16.488;2022-11-18T10:54:24;9.13;;;1.90;;
63008;SDS011;49099;28.428;-16.488;2022-11-18T10:56:53;13.57;;;1.90;;
63008;SDS011;49099;28.428;-16.488;2022-11-18T11:05:14;8.02;;;2.20;;
63008;SDS011;49099;28.428;-16.488;2022-11-18T11:07:44;18.65;;;3.70;;
63008;SDS011;49099;28.428;-16.488;2022-11-18T11:12:40;21.90;;;4.63;;
63008;SDS011;49099;28.428;-16.488;2022-11-18T11:17:50;12.55;;;2.60;;
63008;SDS011;49099;28.428;-16.488;2022-11-18T11:20:42;7.10;;;1.52;;
63008;SDS011;49099;28.428;-16.488;2022-11-18T11:23:09;7.53;;;1.92;;
63008;SDS011;49099;28.428;-16.488;2022-11-18T11:29:24;5.28;;;1.00;;
63008;SDS011;49099;28.428;-16.488;2022-11-18T11:35:19;1.70;;;0.85;;
63008;SDS011;49099;28.428;-16.488;2022-11-18T11:46:34;0.60;;;0.40;;
63008;SDS011;49099;28.428;-16.488;2022-11-18T11:52:02;2.08;;;0.68;;
63008;SDS011;49099;28.428;-16.488;2022-11-18T12:00:02;1.17;;;0.60;;
63008;SDS011;49099;28.428;-16.488;2022-11-18T12:02:48;2.55;;;0.70;;
63008;SDS011;49099;28.428;-16.488;2022-11-18T12:05:57;1.52;;;0.70;;
63008;SDS011;49099;28.428;-16.488;2022-11-18T12:08:22;2.97;;;0.90;;
63008;SDS011;49099;28.428;-16.488;2022-11-18T12:10:52;3.75;;;1.30;;
63008;SDS011;49099;28.428;-16.488;2022-11-18T12:18:57;3.20;;;1.20;;
63008;SDS011;49099;28.428;-16.488;2022-11-18T12:24:58;3.80;;;1.10;;
63008;SDS011;49099;28.428;-16.488;2022-11-18T12:29:51;4.43;;;1.10;;
63008;SDS011;49099;28.428;-16.488;2022-11-18T12:32:36;5.07;;;0.90;;
63008;SDS011;49099;28.428;-16.488;2022-11-18T12:40:31;12.98;;;1.42;;
63008;SDS011;49099;28.428;-16.488;2022-11-18T12:43:03;5.15;;;1.02;;
63008;SDS011;49099;28.428;-16.488;2022-11-18T12:46:08;2.05;;;0.80;;
63008;SDS011;49099;28.428;-16.488;2022-11-18T12:48:36;2.47;;;1.10;;
63008;SDS011;49099;28.428;-16.488;2022-11-18T12:58:43;2.03;;;0.82;;
63008;SDS011;49099;28.428;-16.488;2022-11-18T13:01:13;2.70;;;1.00;;
63008;SDS011;49099;28.428;-16.488;2022-11-18T13:03:42;2.78;;;1.05;;
63008;SDS011;49099;28.428;-16.488;2022-11-18T13:08:52;1.67;;;0.80;;
63008;SDS011;49099;28.428;-16.488;2022-11-18T13:11:23;2.33;;;0.80;;
63008;SDS011;49099;28.428;-16.488;2022-11-18T13:14:17;10.60;;;2.42;;
63008;SDS011;49099;28.428;-16.488;2022-11-18T13:20:18;7.82;;;1.85;;
63008;SDS011;49099;28.428;-16.488;2022-11-18T13:22:51;4.95;;;1.38;;
63008;SDS011;49099;28.428;-16.488;2022-11-18T13:25:38;6.18;;;1.60;;
63008;SDS011;49099;28.428;-16.488;2022-11-18T13:28:24;4.50;;;1.02;;
63008;SDS011;49099;28.428;-16.488;2022-11-18T13:33:40;28.38;;;7.15;;
63008;SDS011;49099;28.428;-16.488;2022-11-18T13:36:17;47.03;;;9.73;;
63008;SDS011;49099;28.428;-16.488;2022-11-18T13:39:00;16.80;;;4.13;;
63008;SDS011;49099;28.428;-16.488;2022-11-18T13:41:30;20.05;;;4.38;;
63008;SDS011;49099;28.428;-16.488;2022-11-18T13:44:14;12.73;;;2.85;;
63008;SDS011;49099;28.428;-16.488;2022-11-18T13:46:55;9.55;;;2.75;;
63008;SDS011;49099;28.428;-16.488;2022-11-18T13:52:37;12.02;;;2.53;;
63008;SDS011;49099;28.428;-16.488;2022-11-18T13:55:13;4.97;;;1.67;;
63008;SDS011;49099;28.428;-16.488;2022-11-18T13:57:46;6.47;;;1.52;;
63008;SDS011;49099;28.428;-16.488;2022-11-18T14:00:19;9.65;;;1.80;;
63008;SDS011;49099;28.428;-16.488;2022-11-18T14:03:05;8.15;;;2.13;;
63008;SDS011;49099;28.428;-16.488;2022-11-18T14:05:53;12.10;;;2.95;;
63008;SDS011;49099;28.428;-16.488;2022-11-18T14:11:01;5.97;;;1.58;;
63008;SDS011;49099;28.428;-16.488;2022-11-18T14:13:30;6.45;;;1.75;;
63008;SDS011;49099;28.428;-16.488;2022-11-18T14:18:47;12.00;;;2.17;;
63008;SDS011;49099;28.428;-16.488;2022-11-18T14:21:32;13.85;;;2.90;;
63008;SDS011;49099;28.428;-16.488;2022-11-18T14:24:01;8.00;;;2.08;;
63008;SDS011;49099;28.428;-16.488;2022-11-18T14:26:30;11.00;;;2.70;;
63008;SDS011;49099;28.428;-16.488;2022-11-18T14:29:00;12.18;;;2.60;;
63008;SDS011;49099;28.428;-16.488;2022-11-18T14:31:30;18.30;;;2.75;;
63008;SDS011;49099;28.428;-16.488;2022-11-18T14:36:47;9.32;;;2.00;;
63008;SDS011;49099;28.428;-16.488;2022-11-18T14:39:26;7.60;;;1.95;;
63008;SDS011;49099;28.428;-16.488;2022-11-18T14:41:55;6.78;;;1.67;;
63008;SDS011;49099;28.428;-16.488;2022-11-18T14:44:25;10.13;;;2.20;;
63008;SDS011;49099;28.428;-16.488;2022-11-18T14:46:56;9.60;;;2.25;;
63008;SDS011;49099;28.428;-16.488;2022-11-18T14:49:26;7.78;;;1.70;;
63008;SDS011;49099;28.428;-16.488;2022-11-18T14:51:55;9.38;;;2.28;;
63008;SDS011;49099;28.428;-16.488;2022-11-18T14:54:23;8.60;;;1.92;;
63008;SDS011;49099;28.428;-16.488;2022-11-18T14:56:56;9.30;;;2.22;;
63008;SDS011;49099;28.428;-16.488;2022-11-18T14:59:26;10.25;;;2.55;;
63008;SDS011;49099;28.428;-16.488;2022-11-18T15:01:54;7.97;;;1.85;;
63008;SDS011;49099;28.428;-16.488;2022-11-18T15:04:22;5.95;;;1.83;;
63008;SDS011;49099;28.428;-16.488;2022-11-18T15:06:49;8.90;;;2.08;;
63008;SDS011;49099;28.428;-16.488;2022-11-18T15:09:16;7.10;;;1.70;;
63008;SDS011;49099;28.428;-16.488;2022-11-18T15:11:43;13.23;;;2.55;;
63008;SDS011;49099;28.428;-16.488;2022-11-18T15:14:11;8.13;;;1.88;;
63008;SDS011;49099;28.428;-16.488;2022-11-18T15:16:38;13.43;;;3.30;;
63008;SDS011;49099;28.428;-16.488;2022-11-18T15:19:05;9.30;;;2.70;;
63008;SDS011;49099;28.428;-16.488;2022-11-18T15:21:35;11.40;;;2.55;;
63008;SDS011;49099;28.428;-16.488;2022-11-18T15:24:02;6.75;;;1.88;;
63008;SDS011;49099;28.428;-16.488;2022-11-18T15:26:33;6.68;;;1.40;;
63008;SDS011;49099;28.428;-16.488;2022-11-18T15:29:04;5.15;;;1.23;;
63008;SDS011;49099;28.428;-16.488;2022-11-18T15:31:33;14.00;;;3.42;;
63008;SDS011;49099;28.428;-16.488;2022-11-18T15:34:00;6.93;;;2.20;;
63008;SDS011;49099;28.428;-16.488;2022-11-18T15:36:32;8.25;;;2.03;;
63008;SDS011;49099;28.428;-16.488;2022-11-18T15:38:59;11.77;;;4.63;;
63008;SDS011;49099;28.428;-16.488;2022-11-18T15:41:27;12.60;;;3.63;;
63008;SDS011;49099;28.428;-16.488;2022-11-18T15:43:56;16.20;;;4.20;;
63008;SDS011;49099;28.428;-16.488;2022-11-18T15:46:25;13.63;;;4.50;;
63008;SDS011;49099;28.428;-16.488;2022-11-18T15:48:53;10.65;;;2.80;;
63008;SDS011;49099;28.428;-16.488;2022-11-18T15:51:22;10.15;;;2.40;;
63008;SDS011;49099;28.428;-16.488;2022-11-18T15:53:50;12.15;;;2.97;;
63008;SDS011;49099;28.428;-16.488;2022-11-18T15:58:44;11.73;;;2.75;;
63008;SDS011;49099;28.428;-16.488;2022-11-18T16:01:17;9.68;;;2.35;;
63008;SDS011;49099;28.428;-16.488;2022-11-18T16:03:44;13.43;;;3.00;;
63008;SDS011;49099;28.428;-16.488;2022-11-18T16:06:11;21.80;;;3.90;;
63008;SDS011;49099;28.428;-16.488;2022-11-18T16:08:39;16.60;;;3.88;;
63008;SDS011;49099;28.428;-16.488;2022-11-18T16:11:08;15.93;;;3.83;;
63008;SDS011;49099;28.428;-16.488;2022-11-18T16:14:03;20.23;;;4.28;;
63008;SDS011;49099;28.428;-16.488;2022-11-18T16:16:31;21.23;;;4.13;;
63008;SDS011;49099;28.428;-16.488;2022-11-18T16:18:59;16.88;;;3.95;;
63008;SDS011;49099;28.428;-16.488;2022-11-18T16:21:28;12.07;;;3.38;;
63008;SDS011;49099;28.428;-16.488;2022-11-18T16:23:58;11.07;;;2.53;;
63008;SDS011;49099;28.428;-16.488;2022-11-18T16:26:26;13.70;;;3.22;;
63008;SDS011;49099;28.428;-16.488;2022-11-18T16:28:56;17.65;;;2.92;;
63008;SDS011;49099;28.428;-16.488;2022-11-18T16:31:23;17.48;;;3.75;;
63008;SDS011;49099;28.428;-16.488;2022-11-18T16:34:21;10.85;;;2.90;;
63008;SDS011;49099;28.428;-16.488;2022-11-18T16:36:49;10.15;;;2.30;;
63008;SDS011;49099;28.428;-16.488;2022-11-18T16:39:19;13.93;;;3.10;;
63008;SDS011;49099;28.428;-16.488;2022-11-18T16:41:52;12.82;;;3.00;;
63008;SDS011;49099;28.428;-16.488;2022-11-18T16:44:20;17.33;;;4.03;;
63008;SDS011;49099;28.428;-16.488;2022-11-18T16:46:56;14.77;;;3.97;;
63008;SDS011;49099;28.428;-16.488;2022-11-18T16:49:24;21.30;;;4.18;;
63008;SDS011;49099;28.428;-16.488;2022-11-18T16:51:53;18.42;;;3.92;;
63008;SDS011;49099;28.428;-16.488;2022-11-18T16:54:22;22.45;;;4.82;;